KLWB/LWB METAR and TAF weather

Enter ICAO airport designator
Station Type Date Time Source
KLWB METAR 2021/10/20 07:15 UTC NOAA

KLWB 200715Z AUTO 00000KT 10SM CLR 05/05 A3024 RMK AO2 T00510045


Station Type Date Time Source
KLWB Decoded METAR 2021/10/20 07:15 UTC NOAA

Lewisburg / Greenbrier, WV, United States (KLWB) 37-52N 080-24W
Oct 20, 2021 - 03:15 AM EDT / 2021.10.20 0715 UTC
Wind: Calm:0
Visibility: 10 mile(s):0
Sky conditions: clear
Temperature: 41.2 F (5.1 C)
Dew Point: 40.1 F (4.5 C)
Relative Humidity: 95%
Pressure (altimeter): 30.24 in. Hg (1024 hPa)
ob: KLWB 200715Z AUTO 00000KT 10SM CLR 05/05 A3024 RMK AO2 T00510045
cycle: 7

Station Type Date Time Source
KLWB TAF 2021/10/20 06:22 UTC NOAA

TAF KLWB 200520Z 2006/2106 00000KT P6SM SCT250
FM201500 29006KT P6SM SKC
FM201900 27007KT P6SM FEW250
FM202300 VRB03KT P6SM SKC

Example: see airport list